Time;durP1;ratioP1;P1;durP2;ratioP2;P2;SDS_P1;SDS_P2;PMS_P1;PMS_P2;Temp;Humidity;BMP_temperature;BMP_pressure;BME280_temperature;BME280_humidity;BME280_pressure;Samples;Min_cycle;Max_cycle;Signal;HPM_P1;HPM_P2
2023/05/01 00:01:19;;;;;;;7.13;6.63;;;;;;;13.95;89.07;99412.69;5011874;28;20260;-67
2023/05/01 00:03:45;;;;;;;8.27;7.67;;;;;;;14.04;88.65;99416.72;5018578;28;20669;-68
2023/05/01 00:06:13;;;;;;;8.50;7.93;;;;;;;14.14;88.02;99414.34;5032176;28;20197;-68
2023/05/01 00:08:40;;;;;;;8.13;7.50;;;;;;;14.22;87.65;99410.63;5031954;28;20201;-68
2023/05/01 00:11:08;;;;;;;7.67;7.17;;;;;;;14.30;87.44;99408.44;5032059;28;20255;-68
2023/05/01 00:13:35;;;;;;;7.33;6.63;;;;;;;14.38;87.51;99405.50;5029578;28;20190;-68
2023/05/01 00:16:02;;;;;;;8.77;7.83;;;;;;;14.45;87.79;99411.59;5031566;28;20290;-68
2023/05/01 00:18:30;;;;;;;9.50;6.67;;;;;;;14.50;87.19;99409.06;5031570;28;20190;-68
2023/05/01 00:20:57;;;;;;;7.40;6.70;;;;;;;14.54;87.28;99404.91;5031676;28;20197;-68
2023/05/01 00:23:25;;;;;;;7.10;6.43;;;;;;;14.56;87.22;99394.81;5031433;28;20198;-68
2023/05/01 00:25:51;;;;;;;9.20;6.93;;;;;;;14.65;87.37;99400.66;5031985;28;20197;-68
2023/05/01 00:28:18;;;;;;;7.17;6.67;;;;;;;14.64;86.79;99396.34;5031290;28;20229;-67
2023/05/01 00:30:45;;;;;;;7.63;6.93;;;;;;;14.67;87.02;99402.06;5031922;28;20185;-68
2023/05/01 00:33:12;;;;;;;7.37;6.77;;;;;;;14.67;87.52;99398.59;5031752;28;20214;-68
2023/05/01 00:35:40;;;;;;;7.97;6.67;;;;;;;14.59;87.57;99397.03;5031694;28;20312;-68
2023/05/01 00:38:06;;;;;;;8.63;7.60;;;;;;;14.56;88.69;99396.66;5031419;28;20665;-68
2023/05/01 00:40:41;;;;;;;6.73;6.13;;;;;;;14.55;88.74;99395.84;5031814;28;20193;-68
2023/05/01 00:43:08;;;;;;;7.60;7.07;;;;;;;14.56;88.82;99399.34;5019062;28;20221;-68
2023/05/01 00:45:35;;;;;;;7.53;7.03;;;;;;;14.52;88.45;99398.16;5012117;28;20567;-68
2023/05/01 00:48:02;;;;;;;6.97;6.50;;;;;;;14.48;87.94;99395.13;5011901;28;20225;-68
2023/05/01 00:50:29;;;;;;;7.30;6.60;;;;;;;14.46;88.16;99389.16;5011768;28;20190;-68
2023/05/01 00:52:56;;;;;;;6.63;6.27;;;;;;;14.43;87.52;99394.97;5012012;28;20237;-68
2023/05/01 00:55:23;;;;;;;6.77;6.13;;;;;;;14.42;88.18;99396.00;5043661;28;20279;-68
2023/05/01 00:57:51;;;;;;;11.17;8.33;;;;;;;14.39;87.80;99399.13;5050017;28;20754;-68
2023/05/01 01:00:21;;;;;;;8.47;7.70;;;;;;;14.23;87.71;99407.72;5017769;28;20194;-68
2023/05/01 01:02:48;;;;;;;10.83;7.20;;;;;;;14.14;87.89;99400.97;5011765;28;20249;-68
2023/05/01 01:05:15;;;;;;;8.40;7.80;;;;;;;14.02;88.27;99400.09;5030460;28;20194;-67
2023/05/01 01:07:50;;;;;;;7.50;7.00;;;;;;;13.92;88.34;99399.78;5029502;28;20201;-67
2023/05/01 01:10:22;;;;;;;6.03;5.43;;;;;;;13.91;88.21;99408.00;5031122;28;20269;-67
2023/05/01 01:12:59;;;;;;;5.80;5.30;;;;;;;13.96;88.27;99411.66;5032080;28;20189;-67
2023/05/01 01:15:31;;;;;;;6.53;6.03;;;;;;;14.04;87.53;99419.38;5032199;28;20205;-67
2023/05/01 01:18:09;;;;;;;6.27;5.53;;;;;;;14.07;88.35;99412.78;5034852;28;20190;-68
2023/05/01 01:20:46;;;;;;;6.27;5.67;;;;;;;14.08;87.69;99420.56;5034957;28;20185;-68
2023/05/01 01:23:42;;;;;;;6.30;5.80;;;;;;;14.14;87.54;99413.53;5034394;28;20564;-68
2023/05/01 01:26:33;;;;;;;6.07;5.67;;;;;;;14.21;87.34;99419.69;5034541;28;20284;-68
2023/05/01 01:29:29;;;;;;;6.10;5.70;;;;;;;14.24;87.04;99409.34;5032013;28;20670;-68
2023/05/01 01:32:09;;;;;;;6.37;5.83;;;;;;;14.31;87.11;99423.47;5034021;28;20556;-68
2023/05/01 01:34:44;;;;;;;6.63;5.97;;;;;;;14.34;87.20;99420.34;5034289;28;20192;-69
2023/05/01 01:37:17;;;;;;;6.03;5.57;;;;;;;14.40;86.94;99424.81;5034394;28;20231;-68
2023/05/01 01:39:48;;;;;;;6.20;5.70;;;;;;;14.45;86.78;99416.94;5034468;28;20258;-68
2023/05/01 01:42:19;;;;;;;7.63;5.50;;;;;;;14.48;86.56;99416.50;5034531;28;20189;-68
2023/05/01 01:44:50;;;;;;;6.10;5.70;;;;;;;14.48;86.19;99416.50;5031992;28;20193;-68
2023/05/01 01:47:20;;;;;;;5.60;5.20;;;;;;;14.54;85.89;99420.13;5034435;28;20231;-68
2023/05/01 01:49:51;;;;;;;6.17;5.67;;;;;;;14.51;86.05;99421.41;5033983;28;20197;-67
2023/05/01 01:52:20;;;;;;;5.67;5.10;;;;;;;14.54;85.69;99422.81;5032780;28;20186;-68
2023/05/01 01:54:52;;;;;;;6.03;5.50;;;;;;;14.55;85.42;99419.88;5034253;28;20204;-68
2023/05/01 01:57:21;;;;;;;5.03;4.73;;;;;;;14.53;85.48;99421.97;5034206;28;20217;-68
2023/05/01 01:59:50;;;;;;;5.07;4.77;;;;;;;14.53;85.56;99421.97;5034248;28;20297;-68
2023/05/01 02:02:19;;;;;;;5.93;5.33;;;;;;;14.52;85.90;99416.84;5033962;28;20193;-67
2023/05/01 02:04:48;;;;;;;5.37;4.97;;;;;;;14.51;85.65;99426.75;5018332;28;20673;-67
2023/05/01 02:07:17;;;;;;;5.87;5.47;;;;;;;14.45;85.79;99427.63;5014314;28;20569;-67
2023/05/01 02:09:46;;;;;;;5.00;4.70;;;;;;;14.37;85.82;99430.59;5014085;28;20201;-67
2023/05/01 02:12:14;;;;;;;6.03;5.63;;;;;;;14.33;85.96;99425.91;5013607;28;20674;-67
2023/05/01 02:14:42;;;;;;;5.27;4.97;;;;;;;14.33;85.74;99424.06;5014489;28;20325;-67
2023/05/01 02:17:09;;;;;;;5.90;5.50;;;;;;;14.34;85.84;99430.22;5013434;28;20234;-67
2023/05/01 02:19:39;;;;;;;6.37;5.97;;;;;;;14.36;85.74;99428.97;5013500;28;20252;-67
2023/05/01 02:22:07;;;;;;;5.67;5.37;;;;;;;14.32;86.31;99427.78;5013351;28;20252;-67
2023/05/01 02:24:37;;;;;;;6.07;5.50;;;;;;;14.37;86.07;99433.25;5013242;28;20210;-67
2023/05/01 02:27:08;;;;;;;5.97;5.57;;;;;;;14.32;86.13;99441.13;5013891;28;20289;-67
2023/05/01 02:29:35;;;;;;;5.87;5.57;;;;;;;14.16;86.58;99422.13;5013553;28;20600;-67
2023/05/01 02:32:02;;;;;;;6.27;5.80;;;;;;;14.25;86.38;99448.38;5013846;28;20198;-67
2023/05/01 02:34:29;;;;;;;6.00;5.60;;;;;;;14.20;86.51;99445.53;5013300;28;20190;-67
2023/05/01 02:36:55;;;;;;;6.27;5.83;;;;;;;14.18;86.84;99434.22;5013259;28;20308;-67
2023/05/01 02:39:25;;;;;;;6.20;5.70;;;;;;;14.14;86.85;99435.72;5013295;28;20673;-67
2023/05/01 02:41:55;;;;;;;6.20;5.90;;;;;;;14.14;86.55;99429.56;5013486;28;20194;-67
2023/05/01 02:44:24;;;;;;;5.97;5.67;;;;;;;14.09;86.32;99440.91;5018683;28;20205;-68
2023/05/01 02:46:53;;;;;;;6.23;5.73;;;;;;;14.10;86.41;99439.84;5033026;28;20204;-69
2023/05/01 02:49:21;;;;;;;6.93;6.33;;;;;;;14.08;86.28;99451.81;5032587;28;20189;-69
2023/05/01 02:51:48;;;;;;;9.10;6.37;;;;;;;14.03;86.10;99448.97;5032837;28;20688;-68
2023/05/01 02:54:16;;;;;;;7.27;6.80;;;;;;;13.96;86.37;99456.22;5031451;28;20255;-68
2023/05/01 02:56:44;;;;;;;6.80;6.30;;;;;;;13.90;87.35;99447.25;5032933;28;20287;-68
2023/05/01 02:59:11;;;;;;;7.00;6.47;;;;;;;13.91;87.11;99456.88;5032848;28;20194;-68
2023/05/01 03:01:38;;;;;;;6.37;5.77;;;;;;;13.81;87.07;99456.53;5033035;28;20219;-68
2023/05/01 03:04:05;;;;;;;6.80;6.13;;;;;;;13.75;88.01;99460.09;5023280;28;20198;-68
2023/05/01 03:06:32;;;;;;;6.77;6.27;;;;;;;13.70;88.49;99456.44;5012935;28;20194;-68
2023/05/01 03:08:59;;;;;;;6.63;6.13;;;;;;;13.72;88.36;99457.84;5012986;28;20325;-68
2023/05/01 03:11:25;;;;;;;6.83;6.30;;;;;;;13.67;87.82;99471.03;5012605;28;20728;-68
2023/05/01 03:13:53;;;;;;;7.37;6.77;;;;;;;13.61;88.26;99477.25;5014019;28;20194;-70
2023/05/01 03:16:20;;;;;;;7.03;6.53;;;;;;;13.60;88.22;99478.25;5012388;28;20763;-69
2023/05/01 03:18:47;;;;;;;7.13;6.60;;;;;;;13.52;88.27;99481.19;5012365;28;20194;-68
2023/05/01 03:21:14;;;;;;;6.37;5.87;;;;;;;13.53;88.37;99474.00;5012532;28;20289;-69
2023/05/01 03:23:41;;;;;;;6.53;6.10;;;;;;;13.55;89.03;99478.09;5012719;28;20194;-68
2023/05/01 03:26:07;;;;;;;6.80;6.23;;;;;;;13.57;89.44;99476.03;5012358;28;20731;-68
2023/05/01 03:28:34;;;;;;;6.17;5.77;;;;;;;13.59;89.50;99468.63;5012326;28;20684;-66
2023/05/01 03:31:02;;;;;;;7.10;6.60;;;;;;;13.48;89.17;99477.31;5012843;28;20256;-67
2023/05/01 03:33:30;;;;;;;7.20;6.50;;;;;;;13.39;89.66;99483.16;5012770;28;20248;-66
2023/05/01 03:36:02;;;;;;;10.13;6.53;;;;;;;13.40;89.85;99480.22;5012194;28;20194;-67
2023/05/01 03:38:29;;;;;;;7.10;6.70;;;;;;;13.46;90.27;99476.72;5012164;28;20271;-67
2023/05/01 03:40:56;;;;;;;6.70;6.07;;;;;;;13.51;89.71;99482.22;5020299;28;20622;-67
2023/05/01 03:43:23;;;;;;;6.80;6.30;;;;;;;13.54;89.61;99479.13;5029338;28;20608;-67
2023/05/01 03:45:50;;;;;;;7.20;6.67;;;;;;;13.61;89.60;99479.91;5032291;28;20276;-67
2023/05/01 03:48:19;;;;;;;7.40;6.70;;;;;;;13.77;89.61;99476.69;5031866;28;20236;-68
2023/05/01 03:50:45;;;;;;;10.17;5.80;;;;;;;13.95;89.13;99482.13;5031635;28;20195;-67
2023/05/01 03:53:13;;;;;;;7.03;6.33;;;;;;;14.28;89.45;99480.00;5031663;28;20193;-68
2023/05/01 03:55:39;;;;;;;7.03;6.33;;;;;;;14.81;86.84;99481.09;5031659;28;20197;-67
2023/05/01 03:58:07;;;;;;;6.37;5.87;;;;;;;15.44;84.53;99489.59;5031570;28;20229;-67
2023/05/01 04:00:33;;;;;;;8.43;6.33;;;;;;;16.09;80.69;99498.50;5031653;28;20284;-67
2023/05/01 04:03:00;;;;;;;6.23;5.83;;;;;;;16.68;77.98;99512.53;5031322;28;20190;-67
2023/05/01 04:05:28;;;;;;;6.23;5.63;;;;;;;17.23;74.55;99520.94;5012145;28;20189;-67
2023/05/01 04:07:55;;;;;;;9.67;5.77;;;;;;;17.67;71.77;99528.25;5011998;28;20229;-67
2023/05/01 04:10:22;;;;;;;6.57;5.93;;;;;;;17.99;69.74;99538.28;5012162;28;20194;-68
2023/05/01 04:12:48;;;;;;;6.97;6.23;;;;;;;18.48;68.55;99539.38;5021316;28;20252;-68
2023/05/01 04:15:15;;;;;;;10.80;5.77;;;;;;;18.93;66.02;99551.63;5031185;28;20599;-69
2023/05/01 04:17:43;;;;;;;7.20;5.53;;;;;;;19.37;64.35;99561.41;5031404;28;20231;-68
2023/05/01 04:20:11;;;;;;;9.23;5.63;;;;;;;19.92;61.54;99571.97;5031564;28;20236;-68
2023/05/01 04:22:39;;;;;;;12.40;5.47;;;;;;;20.52;60.00;99576.09;5031470;28;20204;-70
2023/05/01 04:25:07;;;;;;;8.33;6.27;;;;;;;21.16;58.08;99568.72;5031103;28;20197;-69
2023/05/01 04:27:34;;;;;;;7.53;6.47;;;;;;;21.92;54.87;99578.75;5031406;28;20203;-69
2023/05/01 04:30:01;;;;;;;8.77;6.03;;;;;;;22.61;52.33;99570.97;5031736;28;20224;-70
2023/05/01 04:32:27;;;;;;;6.63;6.03;;;;;;;22.69;50.24;99562.28;5031791;28;20220;-69
2023/05/01 04:34:54;;;;;;;6.93;6.43;;;;;;;23.07;49.32;99553.56;5031700;28;20255;-70
2023/05/01 04:37:21;;;;;;;16.07;7.13;;;;;;;23.63;47.88;99561.25;5031359;28;20716;-70
2023/05/01 04:39:49;;;;;;;4.23;3.90;;;;;;;24.19;51.03;99557.13;5031431;28;20256;-66
2023/05/01 04:42:16;;;;;;;5.37;4.97;;;;;;;25.02;46.96;99553.13;5023908;28;20196;-67
2023/05/01 04:44:43;;;;;;;5.27;4.87;;;;;;;25.53;42.45;99571.59;5011307;28;20692;-67
2023/05/01 04:47:09;;;;;;;4.87;4.57;;;;;;;26.32;42.16;99574.31;5011480;28;20630;-67
2023/05/01 04:49:36;;;;;;;5.23;4.83;;;;;;;27.32;39.61;99572.56;5023388;28;20201;-69
2023/05/01 04:52:03;;;;;;;4.87;4.57;;;;;;;28.11;37.21;99563.78;5034449;28;20658;-68
2023/05/01 04:54:30;;;;;;;4.63;4.33;;;;;;;28.58;35.80;99568.69;5034801;28;20288;-68
2023/05/01 04:56:58;;;;;;;11.80;5.13;;;;;;;28.89;34.52;99569.50;5033808;28;20252;-66
2023/05/01 04:59:25;;;;;;;5.73;4.37;;;;;;;28.87;33.25;99571.75;5032935;28;20562;-67
2023/05/01 05:01:52;;;;;;;4.80;4.60;;;;;;;28.96;32.43;99580.81;5033912;28;20221;-65
2023/05/01 05:04:18;;;;;;;4.70;4.30;;;;;;;28.74;33.45;99562.50;5022845;28;20190;-67
2023/05/01 05:06:45;;;;;;;6.37;3.90;;;;;;;29.05;32.44;99578.94;5013760;28;20263;-65
2023/05/01 05:09:12;;;;;;;3.93;3.37;;;;;;;29.41;32.34;99576.03;5016777;28;20193;-67
2023/05/01 05:11:38;;;;;;;5.10;4.60;;;;;;;29.09;31.65;99574.47;5028843;28;20578;-67
2023/05/01 05:14:07;;;;;;;5.20;4.90;;;;;;;29.06;32.26;99586.03;5031270;28;20267;-66
2023/05/01 05:16:34;;;;;;;4.30;3.83;;;;;;;29.27;33.05;99592.56;5033613;28;20201;-67
2023/05/01 05:19:00;;;;;;;3.30;3.10;;;;;;;30.24;31.52;99583.94;5033333;28;20196;-68
2023/05/01 05:21:27;;;;;;;4.20;3.90;;;;;;;29.70;30.70;99590.00;5032924;28;20267;-67
2023/05/01 05:23:54;;;;;;;3.07;2.90;;;;;;;30.05;31.40;99581.50;5033917;28;20641;-67
2023/05/01 05:26:22;;;;;;;3.63;3.43;;;;;;;30.74;30.53;99594.09;5032791;28;20668;-65
2023/05/01 05:28:50;;;;;;;5.10;3.60;;;;;;;29.99;31.27;99593.75;5032862;28;20236;-69
2023/05/01 05:31:18;;;;;;;4.40;4.00;;;;;;;29.70;31.62;99590.00;5032659;28;20269;-66
2023/05/01 05:33:44;;;;;;;5.57;4.13;;;;;;;29.32;32.09;99584.22;5033483;28;20256;-66
2023/05/01 05:36:11;;;;;;;4.27;3.97;;;;;;;29.88;31.27;99589.69;5032637;28;20258;-67
2023/05/01 05:38:39;;;;;;;4.83;3.77;;;;;;;29.78;32.00;99592.75;5033072;28;20221;-68
2023/05/01 05:41:06;;;;;;;4.37;3.47;;;;;;;29.84;31.83;99596.16;5032765;28;20728;-68
2023/05/01 05:43:32;;;;;;;3.63;2.73;;;;;;;29.87;31.57;99595.50;5023341;28;20271;-67
2023/05/01 05:45:59;;;;;;;28.90;4.57;;;;;;;30.27;29.93;99597.84;5033628;28;20728;-67
2023/05/01 05:48:27;;;;;;;3.83;3.53;;;;;;;30.15;30.97;99597.69;5032908;28;20193;-66
2023/05/01 05:50:54;;;;;;;4.90;3.73;;;;;;;30.51;30.26;99594.59;5030275;28;20802;-67
2023/05/01 05:53:21;;;;;;;4.70;3.30;;;;;;;30.39;29.81;99600.75;5032891;28;20185;-67
2023/05/01 05:55:48;;;;;;;3.80;3.50;;;;;;;29.68;31.07;99593.03;5033529;28;20273;-66
2023/05/01 05:58:18;;;;;;;9.73;3.67;;;;;;;30.47;29.99;99610.09;5033381;28;20243;-67
2023/05/01 06:00:47;;;;;;;3.80;3.50;;;;;;;30.20;30.28;99594.75;5031695;28;20665;-67
2023/05/01 06:03:13;;;;;;;3.70;3.40;;;;;;;29.61;30.75;99602.84;5030865;28;20668;-66
2023/05/01 06:05:42;;;;;;;14.43;3.93;;;;;;;28.90;31.95;99603.91;5021784;28;20247;-67
2023/05/01 06:08:10;;;;;;;4.97;3.30;;;;;;;28.86;33.33;99602.94;5018330;28;20201;-67
2023/05/01 06:10:38;;;;;;;5.63;2.73;;;;;;;29.35;32.96;99615.63;5013490;28;20224;-66
2023/05/01 06:13:05;;;;;;;4.17;2.77;;;;;;;29.95;31.87;99609.22;5013317;28;20220;-68
2023/05/01 06:15:32;;;;;;;3.30;3.00;;;;;;;29.90;30.84;99620.34;5013802;28;20666;-65
2023/05/01 06:17:59;;;;;;;4.40;2.80;;;;;;;29.99;30.84;99621.16;5013253;28;20284;-66
2023/05/01 06:20:26;;;;;;;19.97;3.30;;;;;;;29.99;30.90;99625.81;5013686;28;20198;-66
2023/05/01 06:22:54;;;;;;;3.43;3.00;;;;;;;30.38;30.81;99621.03;5013149;28;20281;-67
2023/05/01 06:25:21;;;;;;;3.20;2.90;;;;;;;30.52;29.98;99618.97;5012962;28;20586;-67
2023/05/01 06:27:48;;;;;;;7.70;2.60;;;;;;;30.66;30.36;99625.06;5013792;28;20198;-70
2023/05/01 06:30:15;;;;;;;9.50;3.80;;;;;;;30.34;29.86;99617.34;5013355;28;20713;-70
2023/05/01 06:32:42;;;;;;;3.13;2.87;;;;;;;30.29;30.30;99620.25;5013654;28;20268;-69
2023/05/01 06:35:10;;;;;;;4.47;2.70;;;;;;;30.59;29.32;99613.81;5013542;28;20233;-68
2023/05/01 06:37:37;;;;;;;2.80;2.70;;;;;;;30.76;29.41;99618.47;5013183;28;20653;-70
2023/05/01 06:40:07;;;;;;;3.00;2.50;;;;;;;30.52;29.58;99618.97;5013665;28;20297;-69
2023/05/01 06:42:34;;;;;;;6.90;2.47;;;;;;;29.83;31.72;99621.91;5021148;28;20193;-69
2023/05/01 06:45:00;;;;;;;3.63;2.50;;;;;;;29.83;31.06;99628.22;5032935;28;20209;-71
2023/05/01 06:47:27;;;;;;;8.13;2.50;;;;;;;30.14;30.63;99625.41;5032906;28;20205;-71
2023/05/01 06:49:54;;;;;;;2.40;2.27;;;;;;;30.24;29.96;99616.84;5032552;28;20260;-68
2023/05/01 06:52:21;;;;;;;9.53;2.80;;;;;;;30.09;29.50;99628.28;5014540;28;20237;-69
2023/05/01 06:54:47;;;;;;;3.43;2.57;;;;;;;29.85;29.25;99636.94;5013238;28;20208;-67
2023/05/01 06:57:15;;;;;;;6.43;2.10;;;;;;;29.49;30.20;99632.75;5014598;28;20221;-67
2023/05/01 06:59:42;;;;;;;2.67;2.57;;;;;;;29.73;29.92;99627.69;5021608;28;20194;-68
2023/05/01 07:02:09;;;;;;;4.37;3.03;;;;;;;29.79;30.16;99640.94;5023031;28;20276;-68
2023/05/01 07:04:36;;;;;;;3.13;2.63;;;;;;;29.75;30.24;99634.47;5015640;28;20743;-68
2023/05/01 07:07:03;;;;;;;3.10;2.80;;;;;;;29.72;29.59;99637.84;5012945;28;20255;-68
2023/05/01 07:09:30;;;;;;;2.60;2.50;;;;;;;29.26;30.52;99633.94;5012602;28;20286;-68
2023/05/01 07:11:58;;;;;;;6.53;2.87;;;;;;;29.45;30.62;99638.06;5012209;28;20198;-69
2023/05/01 07:14:26;;;;;;;3.10;2.80;;;;;;;29.59;29.98;99646.19;5012515;28;20743;-67
2023/05/01 07:16:53;;;;;;;4.13;3.00;;;;;;;29.50;29.68;99646.13;5012336;28;20653;-68
2023/05/01 07:19:19;;;;;;;2.67;2.47;;;;;;;29.56;29.72;99650.31;5012266;28;20221;-68
2023/05/01 07:21:46;;;;;;;3.30;3.10;;;;;;;29.80;30.04;99656.22;5011287;28;20697;-71
2023/05/01 07:24:13;;;;;;;2.70;2.50;;;;;;;29.91;29.73;99656.75;5015051;28;20251;-68
2023/05/01 07:26:39;;;;;;;2.93;2.67;;;;;;;29.69;28.97;99654.09;5030714;28;20193;-69
2023/05/01 07:29:06;;;;;;;4.13;2.60;;;;;;;29.44;30.19;99658.34;5030755;28;20229;-69
2023/05/01 07:31:34;;;;;;;19.00;3.20;;;;;;;29.56;29.64;99644.84;5030687;28;20579;-70
2023/05/01 07:34:01;;;;;;;6.23;3.17;;;;;;;29.60;29.35;99656.81;5011616;28;20249;-70
2023/05/01 07:36:28;;;;;;;5.73;2.57;;;;;;;29.87;29.37;99656.59;5011714;28;20257;-68
2023/05/01 07:38:55;;;;;;;12.27;3.00;;;;;;;29.76;28.54;99660.72;5011648;28;20230;-69
2023/05/01 07:41:24;;;;;;;2.70;2.47;;;;;;;29.55;29.67;99659.66;5013695;28;20230;-70
2023/05/01 07:43:50;;;;;;;3.03;2.50;;;;;;;29.30;29.91;99646.66;5014151;28;20232;-68
2023/05/01 07:46:17;;;;;;;6.17;2.67;;;;;;;29.58;29.76;99664.53;5017240;28;20189;-67
2023/05/01 07:48:45;;;;;;;8.03;2.50;;;;;;;29.78;29.64;99661.25;5010102;28;20198;-69
2023/05/01 07:51:12;;;;;;;6.97;3.47;;;;;;;29.62;29.94;99660.06;5011215;28;20263;-70
2023/05/01 07:53:41;;;;;;;18.70;3.80;;;;;;;29.04;29.93;99654.72;5009425;28;20214;-68
2023/05/01 07:56:08;;;;;;;2.60;2.47;;;;;;;29.14;29.90;99661.88;5010301;28;20680;-68
2023/05/01 07:58:36;;;;;;;2.73;2.63;;;;;;;28.98;30.02;99666.09;5011061;28;20669;-68
2023/05/01 08:01:03;;;;;;;8.73;2.63;;;;;;;29.27;30.79;99659.06;5010582;28;20289;-68
2023/05/01 08:03:30;;;;;;;2.80;2.60;;;;;;;29.70;30.18;99664.75;5010547;28;20570;-67
2023/05/01 08:05:58;;;;;;;3.10;2.80;;;;;;;30.00;29.36;99663.88;5010136;28;20201;-67
2023/05/01 08:08:25;;;;;;;5.33;2.73;;;;;;;30.19;29.76;99664.44;5009933;28;20260;-66
2023/05/01 08:10:52;;;;;;;3.73;2.60;;;;;;;30.13;28.65;99665.66;5009656;28;20198;-71
2023/05/01 08:13:19;;;;;;;2.50;2.40;;;;;;;29.99;29.27;99665.00;5010904;28;20198;-69
2023/05/01 08:15:46;;;;;;;3.00;2.80;;;;;;;30.24;29.01;99666.19;5010708;28;20260;-70
2023/05/01 08:18:18;;;;;;;2.73;2.53;;;;;;;30.28;27.26;99670.72;5011914;28;20264;-71
2023/05/01 08:20:45;;;;;;;2.50;2.30;;;;;;;30.29;28.96;99672.31;5011307;28;20666;-74
2023/05/01 08:23:14;;;;;;;3.73;3.03;;;;;;;30.33;30.15;99659.59;5017178;28;20206;-74
2023/05/01 08:25:40;;;;;;;2.63;2.53;;;;;;;30.46;27.06;99664.09;5015867;28;20256;-70
2023/05/01 08:28:07;;;;;;;42.90;6.57;;;;;;;30.18;28.40;99667.47;5015637;28;20340;-71
2023/05/01 08:30:34;;;;;;;3.33;2.43;;;;;;;30.04;28.80;99670.31;5015848;28;20238;-71
2023/05/01 08:33:00;;;;;;;8.57;2.67;;;;;;;30.15;29.19;99671.69;5015390;28;20724;-71
2023/05/01 08:35:28;;;;;;;2.90;2.80;;;;;;;30.22;28.94;99672.03;5015850;28;20190;-69
2023/05/01 08:37:55;;;;;;;3.20;3.00;;;;;;;30.23;28.65;99650.88;5015285;28;20225;-69
2023/05/01 08:40:23;;;;;;;3.13;2.70;;;;;;;30.49;28.88;99663.47;5015684;28;20205;-70
2023/05/01 08:42:51;;;;;;;6.60;2.80;;;;;;;30.56;28.30;99669.28;5030379;28;20587;-70
2023/05/01 08:45:19;;;;;;;4.90;3.00;;;;;;;30.40;26.87;99659.94;5034608;28;20588;-70
2023/05/01 08:47:47;;;;;;;23.00;4.13;;;;;;;30.09;27.88;99672.91;5034057;28;20201;-75
2023/05/01 08:50:16;;;;;;;6.70;2.77;;;;;;;30.01;29.48;99670.94;5033386;28;20545;-70
2023/05/01 08:52:44;;;;;;;6.77;2.63;;;;;;;30.04;28.87;99645.66;5034929;28;20657;-70
2023/05/01 08:55:14;;;;;;;3.43;2.30;;;;;;;30.17;27.42;99663.91;5034486;28;20244;-72
2023/05/01 08:57:45;;;;;;;3.60;2.70;;;;;;;30.27;28.71;99649.94;5034830;28;20194;-72
2023/05/01 09:00:17;;;;;;;4.40;2.80;;;;;;;30.32;28.61;99663.47;5030526;28;20191;-72
2023/05/01 09:02:46;;;;;;;2.30;2.20;;;;;;;30.10;27.61;99666.31;5015399;28;20190;-71
2023/05/01 09:05:15;;;;;;;4.43;2.57;;;;;;;29.32;28.08;99660.88;5032893;28;20228;-71
2023/05/01 09:07:42;;;;;;;6.93;2.93;;;;;;;29.23;29.33;99659.97;5034552;28;20259;-71
2023/05/01 09:10:11;;;;;;;4.20;2.43;;;;;;;29.03;28.86;99663.28;5014974;28;20252;-71
2023/05/01 09:12:39;;;;;;;3.53;2.40;;;;;;;29.23;30.17;99651.78;5016530;28;20516;-69
2023/05/01 09:15:09;;;;;;;2.90;2.60;;;;;;;29.35;29.96;99653.94;5023634;28;20197;-69
2023/05/01 09:17:36;;;;;;;2.50;2.20;;;;;;;29.44;28.91;99661.09;5024903;28;20276;-69
2023/05/01 09:20:04;;;;;;;4.37;2.33;;;;;;;29.56;29.59;99661.25;5024068;28;20578;-69
2023/05/01 09:22:32;;;;;;;2.40;2.30;;;;;;;29.68;29.95;99664.25;5010832;28;20642;-68
2023/05/01 09:24:59;;;;;;;3.20;2.23;;;;;;;29.50;30.70;99646.13;5013947;28;20201;-68
2023/05/01 09:27:26;;;;;;;3.20;2.53;;;;;;;29.58;30.71;99653.59;5025547;28;20208;-67
2023/05/01 09:29:53;;;;;;;2.10;2.00;;;;;;;29.59;30.01;99646.97;5015404;28;20620;-68
2023/05/01 09:32:26;;;;;;;2.23;1.97;;;;;;;29.37;29.37;99635.25;5014593;28;20209;-67
2023/05/01 09:34:53;;;;;;;3.60;2.87;;;;;;;28.61;30.96;99647.31;5014440;28;20201;-67
2023/05/01 09:37:28;;;;;;;3.20;2.37;;;;;;;28.76;30.34;99650.50;5014598;28;20198;-68
2023/05/01 09:40:03;;;;;;;4.13;2.33;;;;;;;28.92;30.83;99645.47;5014448;28;20224;-68
2023/05/01 09:42:30;;;;;;;4.00;2.40;;;;;;;29.19;31.56;99645.31;5014295;28;20576;-67
2023/05/01 09:44:57;;;;;;;2.77;2.50;;;;;;;29.09;31.06;99637.38;5014241;28;20292;-70
2023/05/01 09:47:27;;;;;;;6.27;2.60;;;;;;;29.13;30.82;99646.59;5014261;28;20554;-69
2023/05/01 09:49:56;;;;;;;5.37;2.60;;;;;;;29.20;31.56;99650.47;5014310;28;20202;-68
2023/05/01 09:52:23;;;;;;;2.70;2.60;;;;;;;29.24;31.43;99642.47;5014177;28;20194;-69
2023/05/01 09:54:50;;;;;;;3.50;2.90;;;;;;;29.47;32.43;99652.22;5013811;28;20245;-68
2023/05/01 09:57:17;;;;;;;3.53;2.20;;;;;;;29.68;32.45;99644.28;5014085;28;20256;-68
2023/05/01 10:00:07;;;;;;;3.03;2.70;;;;;;;29.65;31.31;99647.66;5013075;28;20221;-67
2023/05/01 10:02:35;;;;;;;2.50;2.23;;;;;;;29.49;30.61;99660.94;5013518;28;20264;-66
2023/05/01 10:05:02;;;;;;;2.27;2.10;;;;;;;29.58;30.95;99642.63;5030240;28;20219;-67
2023/05/01 10:07:29;;;;;;;2.50;2.40;;;;;;;29.04;29.17;99643.00;5033403;28;20229;-67
2023/05/01 10:09:56;;;;;;;3.70;2.47;;;;;;;28.67;31.08;99632.44;5033390;28;20196;-67
2023/05/01 10:12:24;;;;;;;5.33;2.37;;;;;;;28.78;29.18;99639.25;5033059;28;20201;-68
2023/05/01 10:14:52;;;;;;;2.57;2.43;;;;;;;28.71;29.79;99644.34;5033531;28;20283;-66
2023/05/01 10:17:19;;;;;;;4.17;2.30;;;;;;;28.70;28.94;99646.28;5033895;28;20267;-66
2023/05/01 10:19:47;;;;;;;2.50;2.30;;;;;;;28.70;30.04;99643.53;5017355;28;20474;-67
2023/05/01 10:22:15;;;;;;;5.47;2.40;;;;;;;28.74;29.63;99655.47;5013896;28;20586;-67
2023/05/01 10:24:44;;;;;;;4.07;2.10;;;;;;;28.96;30.26;99643.72;5013808;28;20194;-67
2023/05/01 10:27:13;;;;;;;3.33;2.00;;;;;;;28.92;28.77;99650.94;5020541;28;20193;-66
2023/05/01 10:29:41;;;;;;;2.27;1.93;;;;;;;28.31;28.67;99645.28;5033678;28;20283;-66
2023/05/01 10:32:09;;;;;;;5.40;2.07;;;;;;;28.45;29.23;99640.59;5033551;28;20193;-67
2023/05/01 10:34:40;;;;;;;2.83;2.10;;;;;;;28.63;29.18;99642.38;5032443;28;20221;-66
2023/05/01 10:37:12;;;;;;;2.10;2.00;;;;;;;28.76;29.49;99652.44;5033126;28;20664;-66
2023/05/01 10:39:39;;;;;;;3.23;2.27;;;;;;;28.98;29.38;99655.97;5033072;28;20205;-66
2023/05/01 10:42:09;;;;;;;3.23;1.70;;;;;;;28.76;29.50;99657.91;5033275;28;20207;-67
2023/05/01 10:44:37;;;;;;;2.93;2.03;;;;;;;28.75;29.60;99645.34;5033337;28;20189;-67
2023/05/01 10:47:45;;;;;;;2.13;1.93;;;;;;;28.62;28.09;99651.66;5032603;28;20190;-66
2023/05/01 10:50:14;;;;;;;3.47;1.87;;;;;;;28.85;28.68;99659.59;4953204;28;20200;-66
2023/05/01 10:53:19;;;;;;;2.20;2.10;;;;;;;28.98;28.97;99646.94;5017834;28;20209;-66
2023/05/01 10:55:48;;;;;;;4.57;1.97;;;;;;;28.84;28.66;99654.41;5032233;28;20621;-66
2023/05/01 10:58:53;;;;;;;3.90;1.97;;;;;;;28.76;29.56;99641.50;5018175;28;20715;-66
2023/05/01 11:01:33;;;;;;;2.50;2.30;;;;;;;28.64;29.57;99658.47;5013582;28;20183;-69
2023/05/01 11:04:02;;;;;;;3.37;2.73;;;;;;;28.72;30.12;99652.25;5013119;28;20189;-70
2023/05/01 11:06:30;;;;;;;2.67;2.10;;;;;;;28.71;30.16;99664.28;5031385;28;20201;-67
2023/05/01 11:08:58;;;;;;;2.80;2.60;;;;;;;28.71;30.75;99649.81;5026797;28;20197;-67
2023/05/01 11:11:50;;;;;;;2.97;2.70;;;;;;;28.59;29.88;99668.72;5025536;28;20193;-67
2023/05/01 11:14:16;;;;;;;3.83;3.00;;;;;;;28.51;30.36;99663.97;5047895;28;21196;-68
2023/05/01 11:16:47;;;;;;;2.93;2.73;;;;;;;28.57;30.50;99657.25;5010678;28;20194;-67
2023/05/01 11:19:51;;;;;;;3.10;2.80;;;;;;;28.76;29.27;99649.69;5015746;28;20214;-65
2023/05/01 11:22:18;;;;;;;3.90;3.20;;;;;;;28.78;29.12;99661.13;5010287;28;20251;-66
2023/05/01 11:24:46;;;;;;;3.10;2.90;;;;;;;28.70;28.70;99668.16;5012774;28;20636;-66
2023/05/01 11:27:15;;;;;;;5.63;2.90;;;;;;;28.39;29.91;99658.22;5012938;28;20288;-66
2023/05/01 11:29:47;;;;;;;4.07;2.53;;;;;;;28.05;30.65;99658.69;5012674;28;20235;-65
2023/05/01 11:32:25;;;;;;;3.57;2.83;;;;;;;28.32;29.66;99657.81;5012705;28;20197;-65
2023/05/01 11:34:52;;;;;;;2.73;2.63;;;;;;;28.35;29.06;99658.03;5013133;28;20193;-65
2023/05/01 11:37:19;;;;;;;2.73;2.53;;;;;;;28.30;29.77;99654.59;5012438;28;20195;-65
2023/05/01 11:39:52;;;;;;;3.20;2.87;;;;;;;28.33;30.58;99662.16;5012309;28;20249;-65
2023/05/01 11:42:22;;;;;;;3.53;3.33;;;;;;;28.22;31.66;99669.00;5012841;28;20186;-65